createdAt,value
2022-12-08T00:01:46.328Z,1.20
2022-12-08T00:04:17.296Z,1.10
2022-12-08T00:07:05.770Z,1.30
2022-12-08T00:09:39.983Z,1.20
2022-12-08T00:12:15.334Z,1.20
2022-12-08T00:14:47.449Z,1.20
2022-12-08T00:17:18.820Z,1.20
2022-12-08T00:19:50.581Z,1.00
2022-12-08T00:22:21.443Z,1.30
2022-12-08T00:24:52.445Z,1.60
2022-12-08T00:27:23.330Z,1.10
2022-12-08T00:29:54.249Z,1.40
2022-12-08T00:32:25.032Z,0.90
2022-12-08T00:34:55.826Z,1.00
2022-12-08T00:37:26.657Z,1.20
2022-12-08T00:39:57.679Z,1.10
2022-12-08T00:42:28.445Z,1.30
2022-12-08T00:44:59.184Z,1.60
2022-12-08T00:47:30.017Z,1.00
2022-12-08T00:50:01.531Z,1.20
2022-12-08T00:52:32.526Z,1.40
2022-12-08T00:55:03.247Z,1.20
2022-12-08T00:57:34.437Z,1.10
2022-12-08T01:00:06.154Z,1.50
2022-12-08T01:02:37.283Z,1.20
2022-12-08T01:05:09.241Z,1.10
2022-12-08T01:07:40.147Z,1.10
2022-12-08T01:10:12.169Z,0.90
2022-12-08T01:12:43.050Z,1.00
2022-12-08T01:15:14.267Z,1.50
2022-12-08T01:17:45.026Z,1.00
2022-12-08T01:20:16.205Z,1.30
2022-12-08T01:22:47.016Z,1.10
2022-12-08T01:25:17.739Z,1.30
2022-12-08T01:27:48.580Z,1.00
2022-12-08T01:30:20.316Z,1.10
2022-12-08T01:32:51.164Z,1.00
2022-12-08T01:35:22.007Z,1.00
2022-12-08T01:37:53.063Z,1.60
2022-12-08T01:40:24.095Z,1.10
2022-12-08T01:42:54.795Z,1.30
2022-12-08T01:45:28.649Z,1.00
2022-12-08T01:48:04.686Z,1.00
2022-12-08T01:50:36.681Z,1.10
2022-12-08T01:53:14.941Z,1.00
2022-12-08T01:55:51.061Z,1.20
2022-12-08T01:58:26.218Z,1.10
2022-12-08T02:00:57.269Z,1.30
2022-12-08T02:03:32.898Z,1.20
2022-12-08T02:06:04.774Z,1.10
2022-12-08T02:08:37.423Z,1.00
2022-12-08T02:11:12.571Z,0.80
2022-12-08T02:13:47.362Z,1.30
2022-12-08T02:16:31.151Z,1.10
2022-12-08T02:19:30.697Z,1.10
2022-12-08T02:22:07.922Z,1.10
2022-12-08T02:24:42.208Z,0.90
2022-12-08T02:27:29.608Z,1.10
2022-12-08T02:30:20.263Z,0.90
2022-12-08T02:33:19.550Z,1.10
2022-12-08T02:35:58.150Z,1.00
2022-12-08T02:38:44.527Z,1.10
2022-12-08T02:41:27.540Z,1.00
2022-12-08T02:44:07.599Z,1.10
2022-12-08T02:49:10.844Z,1.00
2022-12-08T02:51:41.527Z,1.30
2022-12-08T02:54:13.017Z,1.10
2022-12-08T02:57:01.582Z,1.50
2022-12-08T02:59:46.735Z,1.30
2022-12-08T03:02:36.361Z,1.10
2022-12-08T03:05:14.836Z,1.10
2022-12-08T03:07:51.899Z,1.20
2022-12-08T03:10:28.999Z,1.30
2022-12-08T03:13:05.483Z,1.20
2022-12-08T03:15:38.771Z,1.00
2022-12-08T03:18:12.103Z,1.30
2022-12-08T03:20:44.382Z,1.30
2022-12-08T03:23:17.528Z,1.40
2022-12-08T03:25:53.091Z,1.50
2022-12-08T03:28:24.376Z,1.30
2022-12-08T03:31:01.576Z,1.30
2022-12-08T03:33:38.154Z,1.40
2022-12-08T03:36:12.319Z,0.90
2022-12-08T03:38:44.438Z,1.00
2022-12-08T03:41:21.011Z,1.00
2022-12-08T03:43:53.819Z,1.10
2022-12-08T03:48:57.398Z,1.00
2022-12-08T03:51:28.461Z,1.30
2022-12-08T03:53:59.305Z,0.80
2022-12-08T03:56:32.605Z,0.80
2022-12-08T03:59:03.759Z,1.20
2022-12-08T04:01:34.947Z,0.90
2022-12-08T04:04:06.178Z,1.00
2022-12-08T04:06:37.127Z,1.00
2022-12-08T04:09:07.982Z,1.30
2022-12-08T04:11:39.071Z,1.00
2022-12-08T04:14:10.114Z,1.20
2022-12-08T04:16:40.750Z,0.80
2022-12-08T04:19:11.441Z,0.80
2022-12-08T04:21:42.177Z,0.80
2022-12-08T04:24:12.863Z,0.80
2022-12-08T04:26:43.473Z,0.70
2022-12-08T04:29:14.135Z,1.00
2022-12-08T04:31:45.119Z,1.00
2022-12-08T04:34:15.834Z,0.90
2022-12-08T04:36:46.404Z,0.60
2022-12-08T04:39:16.978Z,0.90
2022-12-08T04:41:47.719Z,1.00
2022-12-08T04:44:18.520Z,1.00
2022-12-08T04:46:49.325Z,1.00
2022-12-08T04:49:20.238Z,1.10
2022-12-08T04:51:51.059Z,0.90
2022-12-08T04:54:21.716Z,0.80
2022-12-08T04:56:52.505Z,1.00
2022-12-08T04:59:23.115Z,1.10
2022-12-08T05:01:54.114Z,1.00
2022-12-08T05:04:25.470Z,1.20
2022-12-08T05:06:56.091Z,1.10
2022-12-08T05:09:27.074Z,1.40
2022-12-08T05:11:57.667Z,1.00
2022-12-08T05:14:28.734Z,0.90
2022-12-08T05:17:00.309Z,1.20
2022-12-08T05:22:02.210Z,1.10
2022-12-08T05:24:32.865Z,1.20
2022-12-08T05:27:03.746Z,1.80
2022-12-08T05:29:34.405Z,1.90
2022-12-08T05:32:05.117Z,2.40
2022-12-08T05:34:35.910Z,1.90
2022-12-08T05:37:06.486Z,2.10
2022-12-08T05:39:37.246Z,2.10
2022-12-08T05:42:08.129Z,1.80
2022-12-08T05:44:39.128Z,1.60
2022-12-08T05:47:09.716Z,1.60
2022-12-08T05:49:40.313Z,1.50
2022-12-08T05:52:10.934Z,1.40
2022-12-08T05:54:41.517Z,1.50
2022-12-08T05:57:12.366Z,1.60
2022-12-08T05:59:43.151Z,1.60
2022-12-08T06:02:13.877Z,1.90
2022-12-08T06:04:44.933Z,1.70
2022-12-08T06:07:16.277Z,1.30
2022-12-08T06:09:47.048Z,1.50
2022-12-08T06:12:17.689Z,2.20
2022-12-08T06:14:48.358Z,1.50
2022-12-08T06:17:18.931Z,1.40
2022-12-08T06:19:49.664Z,1.50
2022-12-08T06:22:20.409Z,1.20
2022-12-08T06:24:51.268Z,1.30
2022-12-08T06:27:22.705Z,1.60
2022-12-08T06:29:53.479Z,1.40
2022-12-08T06:32:27.596Z,1.40
2022-12-08T06:34:58.519Z,1.10
2022-12-08T06:37:30.025Z,1.10
2022-12-08T06:40:00.722Z,1.10
2022-12-08T06:42:47.347Z,0.80
2022-12-08T06:45:19.583Z,1.30
2022-12-08T06:47:50.235Z,1.30
2022-12-08T06:50:21.324Z,1.30
2022-12-08T06:53:01.001Z,1.20
2022-12-08T06:55:57.832Z,1.50
2022-12-08T06:58:26.581Z,1.60
2022-12-08T07:00:57.280Z,1.20
2022-12-08T07:03:27.963Z,1.00
2022-12-08T07:06:03.838Z,1.20
2022-12-08T07:08:35.764Z,1.50
2022-12-08T07:11:12.376Z,1.30
2022-12-08T07:13:45.170Z,1.30
2022-12-08T07:16:16.012Z,1.10
2022-12-08T07:18:46.784Z,1.10
2022-12-08T07:21:18.892Z,1.70
2022-12-08T07:23:56.021Z,1.10
2022-12-08T07:26:28.721Z,1.00
2022-12-08T07:29:00.941Z,1.40
2022-12-08T07:31:31.641Z,0.90
2022-12-08T07:34:02.360Z,1.00
2022-12-08T07:36:33.745Z,1.30
2022-12-08T07:39:04.614Z,1.00
2022-12-08T07:41:35.225Z,1.10
2022-12-08T07:44:06.163Z,1.00
2022-12-08T07:46:36.879Z,0.90
2022-12-08T07:49:07.555Z,1.20
2022-12-08T07:51:38.146Z,1.30
2022-12-08T07:54:12.493Z,1.00
2022-12-08T07:56:43.250Z,1.30
2022-12-08T07:59:14.698Z,1.00
2022-12-08T08:01:45.848Z,0.90
2022-12-08T08:04:17.031Z,1.10
2022-12-08T08:06:47.753Z,0.90
2022-12-08T08:09:18.417Z,1.20
2022-12-08T08:12:14.366Z,1.20
2022-12-08T08:14:40.013Z,1.10
2022-12-08T08:17:10.776Z,1.00
2022-12-08T08:19:42.007Z,0.80
2022-12-08T08:22:12.627Z,1.00
2022-12-08T08:24:45.095Z,1.10
2022-12-08T08:27:16.309Z,1.00
2022-12-08T08:29:47.192Z,1.10
2022-12-08T08:32:17.815Z,0.90
2022-12-08T08:34:48.464Z,0.90
2022-12-08T08:37:19.243Z,0.90
2022-12-08T08:39:49.947Z,1.00
2022-12-08T08:42:20.923Z,0.90
2022-12-08T08:44:51.518Z,0.90
2022-12-08T08:47:22.105Z,1.00
2022-12-08T08:49:53.036Z,1.20
2022-12-08T08:52:23.633Z,0.80
2022-12-08T08:54:54.443Z,0.90
2022-12-08T08:57:26.045Z,0.90
2022-12-08T08:59:56.967Z,1.00
2022-12-08T09:02:27.596Z,1.00
2022-12-08T09:04:58.311Z,1.10
2022-12-08T09:07:29.187Z,1.10
2022-12-08T09:10:02.069Z,1.20
2022-12-08T09:12:33.113Z,0.90
2022-12-08T09:15:03.672Z,0.90
2022-12-08T09:17:34.400Z,1.00
2022-12-08T09:20:05.746Z,1.20
2022-12-08T09:22:36.885Z,1.10
2022-12-08T09:25:08.779Z,1.30
2022-12-08T09:27:39.379Z,0.90
2022-12-08T09:30:11.816Z,1.10
2022-12-08T09:32:42.483Z,1.00
2022-12-08T09:35:13.308Z,1.00
2022-12-08T09:37:44.021Z,1.10
2022-12-08T09:40:19.913Z,1.00
2022-12-08T09:42:56.523Z,1.20
2022-12-08T09:45:31.326Z,1.30
2022-12-08T09:48:07.215Z,0.90
2022-12-08T09:50:41.934Z,0.90
2022-12-08T09:53:17.126Z,0.90
2022-12-08T09:55:51.984Z,1.10
2022-12-08T09:58:28.830Z,1.00
2022-12-08T10:01:00.007Z,1.30
2022-12-08T10:03:32.501Z,1.10
2022-12-08T10:06:08.898Z,1.20
2022-12-08T10:08:48.695Z,1.40
2022-12-08T10:11:27.833Z,0.90
2022-12-08T10:14:09.676Z,1.20
2022-12-08T10:16:47.220Z,1.10
2022-12-08T10:19:22.746Z,0.80
2022-12-08T10:21:54.484Z,1.00
2022-12-08T10:24:33.589Z,1.00
2022-12-08T10:27:06.721Z,0.70
2022-12-08T10:29:37.679Z,1.00
2022-12-08T10:32:19.335Z,0.80
2022-12-08T10:35:05.764Z,1.10
2022-12-08T10:37:36.797Z,0.70
2022-12-08T10:40:12.480Z,0.80
2022-12-08T10:42:47.205Z,1.10
2022-12-08T10:45:26.876Z,1.20
2022-12-08T10:48:04.202Z,0.80
2022-12-08T10:50:42.294Z,1.30
2022-12-08T10:53:20.909Z,0.90
2022-12-08T10:55:54.005Z,1.00
2022-12-08T10:58:35.427Z,0.70
2022-12-08T11:01:12.362Z,0.70
2022-12-08T11:03:50.187Z,0.90
2022-12-08T11:06:24.784Z,0.80
2022-12-08T11:08:57.680Z,0.70
2022-12-08T11:11:48.640Z,0.90
2022-12-08T11:14:24.924Z,1.10
2022-12-08T11:17:03.271Z,0.90
2022-12-08T11:19:38.209Z,0.90
2022-12-08T11:22:24.112Z,1.30
2022-12-08T11:25:03.481Z,0.90
2022-12-08T11:27:36.705Z,0.90
2022-12-08T11:30:17.396Z,0.90
2022-12-08T11:32:50.269Z,0.90
2022-12-08T11:35:30.686Z,0.90
2022-12-08T11:38:20.506Z,0.80
2022-12-08T11:40:55.353Z,0.70
2022-12-08T11:46:02.745Z,0.70
2022-12-08T11:48:37.301Z,0.90
2022-12-08T11:51:13.435Z,0.60
2022-12-08T11:53:50.112Z,1.10
2022-12-08T11:56:25.138Z,1.00
2022-12-08T11:59:00.478Z,0.80
2022-12-08T12:01:31.218Z,0.90
2022-12-08T12:04:18.991Z,0.90
2022-12-08T12:07:19.412Z,0.90
2022-12-08T12:10:14.500Z,0.80
2022-12-08T12:12:57.205Z,0.80
2022-12-08T12:15:46.015Z,1.10
2022-12-08T12:18:28.806Z,0.90
2022-12-08T12:21:03.007Z,0.90
2022-12-08T12:23:41.088Z,1.10
2022-12-08T12:26:19.650Z,0.90
2022-12-08T12:28:54.511Z,0.90
2022-12-08T12:31:29.790Z,0.80
2022-12-08T12:34:09.594Z,0.90
2022-12-08T12:36:53.389Z,1.00
2022-12-08T12:39:29.372Z,0.90
2022-12-08T12:42:02.173Z,0.90
2022-12-08T12:44:44.390Z,1.10
2022-12-08T12:47:37.285Z,0.80
2022-12-08T12:50:13.400Z,0.90
2022-12-08T12:52:48.986Z,0.80
2022-12-08T12:55:58.644Z,0.70
2022-12-08T12:58:42.959Z,0.80
2022-12-08T13:01:53.998Z,0.80
2022-12-08T13:04:33.885Z,0.80
2022-12-08T13:07:05.581Z,0.70
2022-12-08T13:09:41.601Z,0.80
2022-12-08T13:12:24.280Z,0.90
2022-12-08T13:14:59.642Z,0.90
2022-12-08T13:17:31.996Z,1.10
2022-12-08T13:20:06.256Z,0.80
2022-12-08T13:23:04.670Z,1.00
2022-12-08T13:26:15.584Z,0.90
2022-12-08T13:29:17.728Z,1.00
2022-12-08T13:31:52.087Z,0.90
2022-12-08T13:34:29.328Z,1.30
2022-12-08T13:37:08.939Z,0.80
2022-12-08T13:39:47.877Z,0.90
2022-12-08T13:42:27.383Z,1.00
2022-12-08T13:45:24.130Z,1.00
2022-12-08T13:57:08.516Z,0.80
2022-12-08T13:59:36.565Z,1.00
2022-12-08T14:02:18.772Z,1.00
2022-12-08T14:07:42.505Z,0.90
2022-12-08T14:10:20.730Z,0.80
2022-12-08T14:12:58.267Z,0.60
2022-12-08T14:15:35.513Z,0.90
2022-12-08T14:18:22.506Z,0.80
2022-12-08T14:21:21.573Z,1.00
2022-12-08T14:23:52.435Z,1.10
2022-12-08T14:26:23.647Z,0.80
2022-12-08T14:28:54.387Z,1.10
2022-12-08T14:31:25.348Z,1.10
2022-12-08T14:33:56.736Z,1.00
2022-12-08T14:36:29.073Z,1.00
2022-12-08T14:39:00.180Z,0.90
2022-12-08T14:41:35.285Z,0.70
2022-12-08T14:44:24.073Z,0.80
2022-12-08T14:47:09.429Z,0.90
2022-12-08T14:49:41.354Z,0.70
2022-12-08T14:52:15.787Z,0.90
2022-12-08T14:54:47.659Z,0.70
2022-12-08T14:57:18.969Z,0.80
2022-12-08T14:59:50.726Z,1.00
2022-12-08T15:02:34.761Z,0.70
2022-12-08T15:05:13.142Z,0.80
2022-12-08T15:07:50.954Z,1.00
2022-12-08T15:10:29.539Z,1.20
2022-12-08T15:13:02.763Z,0.90
2022-12-08T15:15:47.980Z,0.90
2022-12-08T15:18:22.128Z,1.00
2022-12-08T15:20:56.874Z,0.80
2022-12-08T15:23:32.597Z,0.70
2022-12-08T15:26:05.418Z,0.80
2022-12-08T15:28:36.097Z,0.80
2022-12-08T15:31:07.365Z,0.80
2022-12-08T15:33:38.162Z,0.80
2022-12-08T15:36:09.955Z,0.90
2022-12-08T15:38:40.691Z,1.00
2022-12-08T15:41:15.003Z,0.90
2022-12-08T15:43:46.136Z,0.70
2022-12-08T15:46:16.914Z,0.90
2022-12-08T15:48:47.919Z,0.80
2022-12-08T15:51:18.608Z,0.80
2022-12-08T15:53:49.232Z,0.90
2022-12-08T15:56:27.506Z,1.00
2022-12-08T15:58:59.210Z,0.90
2022-12-08T16:01:30.396Z,0.90
2022-12-08T16:09:46.657Z,1.00
2022-12-08T16:16:01.797Z,1.00
2022-12-08T16:18:27.994Z,1.10
2022-12-08T16:21:12.409Z,0.90
2022-12-08T16:23:49.906Z,0.90
2022-12-08T16:27:13.875Z,1.00
2022-12-08T16:29:21.106Z,0.80
2022-12-08T16:31:52.009Z,0.70
2022-12-08T16:34:22.775Z,0.90
2022-12-08T16:36:53.619Z,1.10
2022-12-08T16:39:24.776Z,2.30
2022-12-08T16:42:13.715Z,1.90
2022-12-08T16:44:44.608Z,1.70
2022-12-08T16:47:15.703Z,1.70
2022-12-08T16:49:46.478Z,1.30
2022-12-08T16:52:17.897Z,1.60
2022-12-08T16:54:48.838Z,1.30
2022-12-08T16:57:19.585Z,1.50
2022-12-08T16:59:50.532Z,1.30
2022-12-08T17:02:21.253Z,1.70
2022-12-08T17:04:51.994Z,1.50
2022-12-08T17:07:22.725Z,1.20
2022-12-08T17:09:53.689Z,1.50
2022-12-08T17:12:24.550Z,1.50
2022-12-08T17:14:55.236Z,1.50
2022-12-08T17:17:25.988Z,1.30
2022-12-08T17:19:56.882Z,1.30
2022-12-08T17:22:27.733Z,1.60
2022-12-08T17:24:58.513Z,1.20
2022-12-08T17:27:29.746Z,1.20
2022-12-08T17:30:00.402Z,1.50
2022-12-08T17:32:31.411Z,1.30
2022-12-08T17:35:02.231Z,1.60
2022-12-08T17:37:33.391Z,1.20
2022-12-08T17:40:04.709Z,1.40
2022-12-08T17:42:35.647Z,1.20
2022-12-08T17:45:08.397Z,1.50
2022-12-08T17:47:39.588Z,1.70
2022-12-08T17:50:11.867Z,1.30
2022-12-08T17:52:44.321Z,1.10
2022-12-08T17:55:15.144Z,2.30
2022-12-08T17:57:46.450Z,1.60
2022-12-08T18:00:18.874Z,1.50
2022-12-08T18:02:50.110Z,1.60
2022-12-08T18:05:20.956Z,1.70
2022-12-08T18:07:52.258Z,1.20
2022-12-08T18:10:23.089Z,1.30
2022-12-08T18:12:54.275Z,1.40
2022-12-08T18:15:25.854Z,1.80
2022-12-08T18:17:56.706Z,1.60
2022-12-08T18:20:28.174Z,2.20
2022-12-08T18:22:59.112Z,1.40
2022-12-08T18:25:30.306Z,2.10
2022-12-08T18:28:01.223Z,1.50
2022-12-08T18:30:32.286Z,1.60
2022-12-08T18:33:06.450Z,1.40
2022-12-08T18:35:39.500Z,1.40
2022-12-08T18:38:10.379Z,1.20
2022-12-08T18:40:41.772Z,1.70
2022-12-08T18:43:12.867Z,1.50
2022-12-08T18:45:43.665Z,1.40
2022-12-08T18:48:14.709Z,1.20
2022-12-08T18:50:45.934Z,1.30
2022-12-08T18:53:16.725Z,1.50
2022-12-08T18:55:50.965Z,1.60
2022-12-08T18:58:22.214Z,1.50
2022-12-08T19:00:52.962Z,1.30
2022-12-08T19:03:23.792Z,1.40
2022-12-08T19:06:06.695Z,1.20
2022-12-08T19:08:37.677Z,1.30
2022-12-08T19:11:17.633Z,1.70
2022-12-08T19:16:31.283Z,1.40
2022-12-08T19:19:02.476Z,1.40
2022-12-08T19:21:34.120Z,1.50
2022-12-08T19:24:07.988Z,1.20
2022-12-08T19:29:08.405Z,1.50
2022-12-08T19:31:39.502Z,1.90
2022-12-08T19:34:11.559Z,2.00
2022-12-08T19:36:43.508Z,1.50
2022-12-08T19:39:35.310Z,1.60
2022-12-08T19:42:24.962Z,1.80
2022-12-08T19:44:56.145Z,1.30
2022-12-08T19:47:28.557Z,1.60
2022-12-08T19:50:13.423Z,1.60
2022-12-08T19:52:44.844Z,1.50
2022-12-08T19:55:16.282Z,1.50
2022-12-08T19:57:47.495Z,2.20
2022-12-08T20:00:20.699Z,1.30
2022-12-08T20:02:51.952Z,1.70
2022-12-08T20:05:23.411Z,1.40
2022-12-08T20:07:56.249Z,1.50
2022-12-08T20:10:30.135Z,1.30
2022-12-08T20:15:44.661Z,1.80
2022-12-08T20:18:17.115Z,1.30
2022-12-08T20:20:48.706Z,1.40
2022-12-08T20:23:19.615Z,1.80
2022-12-08T20:25:50.366Z,1.40
2022-12-08T20:28:21.488Z,1.60
2022-12-08T20:30:52.739Z,1.50
2022-12-08T20:33:23.858Z,1.40
2022-12-08T20:36:02.786Z,1.30
2022-12-08T20:38:33.858Z,1.50
2022-12-08T20:41:09.003Z,1.30
2022-12-08T20:43:40.011Z,1.40
2022-12-08T20:46:12.703Z,1.40
2022-12-08T20:48:43.595Z,1.40
2022-12-08T20:51:18.176Z,1.20
2022-12-08T20:53:49.280Z,1.70
2022-12-08T20:56:22.010Z,1.40
2022-12-08T20:58:53.960Z,1.60
2022-12-08T21:01:26.416Z,1.80
2022-12-08T21:03:57.595Z,1.80
2022-12-08T21:06:29.052Z,1.50
2022-12-08T21:09:00.010Z,1.80
2022-12-08T21:11:30.892Z,1.50
2022-12-08T21:14:01.805Z,1.60
2022-12-08T21:16:32.911Z,1.50
2022-12-08T21:19:03.767Z,2.00
2022-12-08T21:21:35.034Z,1.50
2022-12-08T21:24:07.884Z,1.90
2022-12-08T21:26:38.903Z,1.90
2022-12-08T21:29:10.066Z,1.80
2022-12-08T21:31:41.809Z,1.90
2022-12-08T21:34:13.144Z,1.40
2022-12-08T21:36:43.989Z,1.70
2022-12-08T21:39:14.705Z,1.40
2022-12-08T21:42:03.512Z,1.70
2022-12-08T21:44:36.285Z,1.40
2022-12-08T21:47:07.608Z,1.50
2022-12-08T21:49:38.508Z,1.60
2022-12-08T21:52:09.465Z,1.70
2022-12-08T21:54:40.248Z,1.80
2022-12-08T21:57:12.495Z,1.60
2022-12-08T21:59:43.792Z,2.20
2022-12-08T22:02:20.953Z,1.60
2022-12-08T22:04:53.892Z,2.00
2022-12-08T22:07:24.768Z,1.50
2022-12-08T22:09:55.727Z,1.80
2022-12-08T22:12:26.728Z,1.50
2022-12-08T22:14:57.535Z,1.50
2022-12-08T22:17:28.353Z,1.50
2022-12-08T22:19:59.151Z,1.70
2022-12-08T22:22:29.951Z,1.60
2022-12-08T22:25:00.758Z,1.70
2022-12-08T22:27:31.910Z,1.30
2022-12-08T22:30:02.911Z,1.50
2022-12-08T22:32:34.332Z,1.70
2022-12-08T22:35:05.668Z,2.00
2022-12-08T22:37:36.480Z,1.80
2022-12-08T22:40:09.635Z,1.90
2022-12-08T22:42:41.228Z,1.90
2022-12-08T22:45:13.189Z,1.40
2022-12-08T22:47:43.857Z,1.60
2022-12-08T22:50:15.017Z,1.60
2022-12-08T22:52:45.833Z,1.70
2022-12-08T22:55:16.709Z,1.50
2022-12-08T22:57:47.426Z,1.90
2022-12-08T23:00:19.527Z,1.70
2022-12-08T23:02:50.260Z,1.90
2022-12-08T23:05:21.292Z,1.60
2022-12-08T23:07:53.460Z,1.80
2022-12-08T23:10:24.779Z,1.40
2022-12-08T23:12:59.220Z,1.90
2022-12-08T23:15:33.552Z,1.50
2022-12-08T23:18:04.544Z,1.60
2022-12-08T23:20:36.195Z,1.50
2022-12-08T23:23:06.985Z,1.40
2022-12-08T23:25:40.434Z,1.40
2022-12-08T23:28:14.374Z,1.60
2022-12-08T23:30:45.217Z,1.50
2022-12-08T23:33:16.249Z,2.00
2022-12-08T23:35:47.210Z,1.60
2022-12-08T23:38:17.964Z,1.90
2022-12-08T23:40:48.600Z,1.70
2022-12-08T23:43:19.334Z,1.60
2022-12-08T23:45:50.699Z,1.80
2022-12-08T23:48:21.890Z,1.50
2022-12-08T23:50:52.707Z,1.70
2022-12-08T23:53:24.072Z,1.60
2022-12-08T23:56:01.444Z,1.70
2022-12-08T23:58:32.904Z,1.70
